Time;durP1;ratioP1;P1;durP2;ratioP2;P2;SDS_P1;SDS_P2;PMS_P1;PMS_P2;Temp;Humidity;BMP_temperature;BMP_pressure;BME280_temperature;BME280_humidity;BME280_pressure;Samples;Min_cycle;Max_cycle;Signal;HPM_P1;HPM_P2
2023/06/02 00:02:22;;;;;;;5.25;4.32;;;;;;;16.11;56.93;93782.69;4974942;28;20273;-76
2023/06/02 00:04:49;;;;;;;6.00;4.90;;;;;;;16.12;57.15;93783.47;4977602;28;20073;-75
2023/06/02 00:07:15;;;;;;;7.43;5.05;;;;;;;16.11;57.35;93782.69;4974668;28;20420;-75
2023/06/02 00:09:42;;;;;;;7.07;5.25;;;;;;;16.15;57.09;93783.53;4977100;28;20031;-75
2023/06/02 00:12:09;;;;;;;5.88;4.75;;;;;;;16.18;56.98;93779.41;4973756;28;20133;-74
2023/06/02 00:14:37;;;;;;;8.25;4.90;;;;;;;16.18;56.63;93772.09;4975424;28;20049;-75
2023/06/02 00:17:03;;;;;;;5.88;4.93;;;;;;;16.07;57.36;93764.97;4969604;28;20461;-75
2023/06/02 00:19:32;;;;;;;5.93;4.40;;;;;;;16.20;57.17;93782.50;4974181;28;20022;-75
2023/06/02 00:22:00;;;;;;;7.90;4.95;;;;;;;16.12;57.18;93762.00;4973241;28;20026;-74
2023/06/02 00:24:25;;;;;;;6.35;4.70;;;;;;;16.20;57.37;93777.91;4975427;28;20042;-75
2023/06/02 00:26:51;;;;;;;6.40;4.38;;;;;;;16.12;57.48;93770.84;4973639;28;20097;-76
2023/06/02 00:29:16;;;;;;;8.52;4.55;;;;;;;16.21;57.64;93773.31;4975237;28;20042;-75
2023/06/02 00:31:42;;;;;;;6.93;4.00;;;;;;;16.21;57.74;93771.44;4974967;28;20030;-75
2023/06/02 00:34:07;;;;;;;6.63;4.47;;;;;;;16.12;57.90;93762.78;4976973;28;20034;-75
2023/06/02 00:36:32;;;;;;;5.88;4.85;;;;;;;16.20;57.68;93761.03;4975768;28;20031;-75
2023/06/02 00:38:58;;;;;;;5.63;4.07;;;;;;;16.21;57.35;93766.06;4973373;28;20053;-75
2023/06/02 00:41:23;;;;;;;6.55;4.70;;;;;;;16.21;57.55;93760.69;4973361;28;20681;-75
2023/06/02 00:43:49;;;;;;;6.15;5.15;;;;;;;16.21;57.69;93763.38;4973971;28;20172;-75
2023/06/02 00:46:15;;;;;;;19.33;5.32;;;;;;;15.95;57.97;93717.53;4974891;28;20030;-75
2023/06/02 00:48:40;;;;;;;6.10;4.53;;;;;;;16.27;57.64;93766.56;4975445;28;20084;-75
2023/06/02 00:51:05;;;;;;;6.50;4.38;;;;;;;16.23;58.02;93768.41;4968703;28;20042;-75
2023/06/02 00:53:31;;;;;;;7.22;3.75;;;;;;;16.25;57.38;93766.91;4967587;28;20528;-75
2023/06/02 00:55:58;;;;;;;10.43;5.70;;;;;;;16.28;57.44;93779.63;4982636;28;20480;-75
2023/06/02 00:58:23;;;;;;;7.00;5.13;;;;;;;16.19;57.59;93762.94;4974685;28;20562;-74
2023/06/02 01:00:49;;;;;;;6.57;4.90;;;;;;;16.28;57.86;93766.19;4973211;28;20389;-75
2023/06/02 01:03:15;;;;;;;5.93;4.57;;;;;;;16.26;57.18;93760.44;4975986;28;20555;-75
2023/06/02 01:05:42;;;;;;;8.43;4.85;;;;;;;16.25;57.31;93750.81;4974568;28;20057;-75
2023/06/02 01:08:08;;;;;;;5.82;4.97;;;;;;;16.33;57.62;93757.91;4974740;28;20401;-75
2023/06/02 01:10:36;;;;;;;7.38;4.80;;;;;;;16.32;57.13;93755.59;4972360;28;20411;-75
2023/06/02 01:13:04;;;;;;;8.45;4.85;;;;;;;16.26;57.37;93747.00;4974434;28;20643;-75
2023/06/02 01:15:29;;;;;;;7.95;4.55;;;;;;;16.25;57.31;93745.44;4972715;28;20497;-75
2023/06/02 01:17:57;;;;;;;5.50;4.18;;;;;;;16.28;56.56;93747.41;4974671;28;20049;-75
2023/06/02 01:20:23;;;;;;;5.95;5.32;;;;;;;16.28;57.03;93755.47;4970977;28;20026;-74
2023/06/02 01:23:06;;;;;;;11.75;4.57;;;;;;;16.27;57.05;93748.56;4972340;28;20042;-74
2023/06/02 01:25:32;;;;;;;8.73;4.70;;;;;;;16.18;57.03;93734.53;4974626;28;20028;-75
2023/06/02 01:27:58;;;;;;;8.63;4.45;;;;;;;16.19;57.44;93736.09;4975383;28;20061;-75
2023/06/02 01:30:24;;;;;;;8.27;4.72;;;;;;;16.22;57.31;93740.00;4973204;28;20046;-75
2023/06/02 01:33:23;;;;;;;5.07;4.18;;;;;;;16.23;57.27;93742.31;4973528;28;20126;-75
2023/06/02 01:35:54;;;;;;;6.35;4.05;;;;;;;16.20;57.00;93736.88;4974409;28;20089;-75
2023/06/02 01:38:21;;;;;;;7.90;5.07;;;;;;;16.26;56.88;93735.50;4989523;28;20034;-75
2023/06/02 01:40:47;;;;;;;8.43;4.32;;;;;;;16.21;57.99;93736.53;4972759;28;20069;-75
2023/06/02 01:43:14;;;;;;;6.15;5.03;;;;;;;16.21;57.61;93733.06;4975324;28;20109;-75
2023/06/02 01:45:41;;;;;;;17.88;5.80;;;;;;;16.19;57.77;93736.09;4973220;28;20468;-75
2023/06/02 01:48:08;;;;;;;8.23;4.30;;;;;;;16.15;57.64;93731.78;4973573;28;20045;-75
2023/06/02 01:50:35;;;;;;;6.15;3.60;;;;;;;16.17;57.54;93733.00;4971444;28;20386;-75
2023/06/02 01:53:02;;;;;;;6.13;4.57;;;;;;;15.63;58.02;93654.38;4974597;28;20558;-75
2023/06/02 01:55:27;;;;;;;6.75;4.80;;;;;;;16.02;58.17;93715.03;4972686;28;20030;-75
2023/06/02 01:57:53;;;;;;;6.00;4.50;;;;;;;16.18;58.00;93739.16;4972068;28;20212;-75
2023/06/02 02:00:19;;;;;;;8.75;4.57;;;;;;;16.14;57.91;93731.00;4973493;28;20065;-75
2023/06/02 02:02:45;;;;;;;7.13;4.32;;;;;;;16.03;57.61;93718.50;4973539;28;20042;-76
2023/06/02 02:05:11;;;;;;;7.72;5.65;;;;;;;16.08;58.00;93724.38;4973781;28;20073;-75
2023/06/02 02:07:37;;;;;;;9.57;4.43;;;;;;;15.97;58.21;93719.88;4972151;28;20413;-75
2023/06/02 02:10:06;;;;;;;6.35;4.45;;;;;;;15.99;58.16;93715.72;4989748;28;20026;-75
2023/06/02 02:12:32;;;;;;;7.70;4.55;;;;;;;16.04;58.52;93715.44;4972728;28;20438;-75
2023/06/02 02:15:00;;;;;;;8.02;5.13;;;;;;;16.02;58.63;93720.41;4973138;28;20512;-75
2023/06/02 02:17:25;;;;;;;7.82;4.88;;;;;;;16.06;58.44;93726.63;4970977;28;20117;-75
2023/06/02 02:19:55;;;;;;;6.97;4.40;;;;;;;16.13;58.29;93732.16;4973496;28;20036;-75
2023/06/02 02:22:22;;;;;;;5.53;4.93;;;;;;;16.03;58.45;93716.59;4973735;28;20026;-75
2023/06/02 02:24:47;;;;;;;8.77;5.03;;;;;;;16.19;58.57;93741.47;4974156;28;20041;-75
2023/06/02 02:27:13;;;;;;;6.72;5.00;;;;;;;16.09;58.34;93720.53;4970741;28;20050;-74
2023/06/02 02:29:38;;;;;;;5.88;4.82;;;;;;;16.05;58.57;93717.00;4973666;28;20405;-75
2023/06/02 02:32:05;;;;;;;7.05;4.13;;;;;;;16.13;58.91;93732.16;4974395;28;20034;-75
2023/06/02 02:34:32;;;;;;;10.30;5.15;;;;;;;16.16;58.57;93731.44;4970776;28;20034;-75
2023/06/02 02:37:01;;;;;;;9.15;4.70;;;;;;;16.16;58.45;93725.31;4991320;28;20026;-75
2023/06/02 02:39:30;;;;;;;7.20;4.72;;;;;;;16.11;58.26;93720.97;4972702;28;20033;-75
2023/06/02 02:41:55;;;;;;;7.57;4.60;;;;;;;16.21;58.51;93728.50;4971898;28;20042;-75
2023/06/02 02:44:21;;;;;;;7.45;4.47;;;;;;;16.21;58.55;93727.72;4973879;28;20030;-75
2023/06/02 02:46:46;;;;;;;5.32;4.05;;;;;;;16.18;58.45;93712.31;4974280;28;20109;-75
2023/06/02 02:49:12;;;;;;;7.75;5.05;;;;;;;16.19;58.37;93719.22;4972721;28;20092;-77
2023/06/02 02:51:37;;;;;;;6.88;4.95;;;;;;;16.23;58.59;93726.22;4974383;28;20420;-74
2023/06/02 02:54:03;;;;;;;7.35;4.80;;;;;;;16.21;58.50;93728.50;4973330;28;20046;-76
2023/06/02 02:56:30;;;;;;;9.85;5.07;;;;;;;16.14;58.72;93712.22;4972899;28;20516;-76
2023/06/02 02:58:58;;;;;;;5.75;4.80;;;;;;;16.24;58.44;93727.78;4970193;28;20473;-75
2023/06/02 03:01:24;;;;;;;6.82;5.20;;;;;;;16.20;58.67;93721.56;4974401;28;20117;-76
2023/06/02 03:03:50;;;;;;;6.65;5.15;;;;;;;16.15;58.80;93732.56;4970599;28;20042;-75
2023/06/02 03:06:17;;;;;;;5.47;4.00;;;;;;;16.11;58.63;93709.47;4972542;28;20579;-75
2023/06/02 03:08:43;;;;;;;7.55;4.47;;;;;;;16.09;58.84;93715.19;4973170;28;20046;-75
2023/06/02 03:11:08;;;;;;;7.22;4.72;;;;;;;16.16;58.95;93726.09;4972350;28;20477;-75
2023/06/02 03:13:34;;;;;;;5.65;4.28;;;;;;;16.20;58.85;93732.31;4970762;28;20515;-76
2023/06/02 03:16:00;;;;;;;5.82;4.45;;;;;;;16.14;58.72;93733.69;4972497;28;20026;-75
2023/06/02 03:18:25;;;;;;;10.68;4.45;;;;;;;16.08;59.05;93723.59;4971207;28;20054;-75
2023/06/02 03:20:51;;;;;;;6.97;4.63;;;;;;;16.08;58.91;93712.88;4972285;28;20038;-75
2023/06/02 03:23:18;;;;;;;8.18;5.47;;;;;;;16.24;58.37;93727.78;4971572;28;20290;-75
2023/06/02 03:25:43;;;;;;;7.18;5.20;;;;;;;16.20;58.46;93731.50;4973900;28;20038;-75
2023/06/02 03:28:08;;;;;;;7.43;4.80;;;;;;;16.25;58.14;93728.56;4969092;28;20479;-75
2023/06/02 03:30:34;;;;;;;7.05;4.28;;;;;;;16.22;58.52;93730.06;4972685;28;20081;-75
2023/06/02 03:32:59;;;;;;;6.35;5.13;;;;;;;16.26;58.49;93730.91;4973048;28;20137;-75
2023/06/02 03:35:25;;;;;;;6.72;4.55;;;;;;;16.26;58.92;93730.91;4973214;28;20035;-75
2023/06/02 03:37:50;;;;;;;9.88;4.95;;;;;;;16.22;58.89;93721.22;4970531;28;20412;-76
2023/06/02 03:40:16;;;;;;;8.90;4.50;;;;;;;16.22;59.04;93722.00;4969398;28;20034;-76
2023/06/02 03:42:41;;;;;;;6.22;5.00;;;;;;;16.10;59.32;93711.38;4973874;28;20498;-75
2023/06/02 03:45:07;;;;;;;8.93;5.47;;;;;;;16.21;59.62;93728.50;4971872;28;20058;-76
2023/06/02 03:47:32;;;;;;;8.35;4.90;;;;;;;16.12;59.47;93714.50;4972869;28;20480;-74
2023/06/02 03:49:57;;;;;;;6.97;5.07;;;;;;;16.12;59.91;93722.53;4972742;28;20043;-75
2023/06/02 03:52:24;;;;;;;6.90;4.63;;;;;;;16.20;60.37;93721.56;4990070;28;20491;-75
2023/06/02 03:54:49;;;;;;;7.45;5.38;;;;;;;16.26;60.27;93725.53;4971773;28;20045;-75
2023/06/02 03:57:15;;;;;;;11.55;5.35;;;;;;;16.28;60.13;93715.22;4970771;28;20039;-75
2023/06/02 03:59:40;;;;;;;7.30;5.65;;;;;;;16.36;59.99;93707.34;4973577;28;20585;-75
2023/06/02 04:02:06;;;;;;;6.35;5.38;;;;;;;16.53;60.37;93723.03;4974288;28;20038;-75
2023/06/02 04:04:31;;;;;;;8.77;5.68;;;;;;;16.48;60.76;93704.53;4976155;28;20389;-76
2023/06/02 04:06:57;;;;;;;6.85;5.88;;;;;;;16.58;60.34;93715.50;4977242;28;20092;-75
2023/06/02 04:09:22;;;;;;;9.13;6.03;;;;;;;16.50;60.58;93689.66;4976435;28;20523;-76
2023/06/02 04:11:48;;;;;;;10.63;6.30;;;;;;;16.70;59.51;93709.22;4975070;28;20042;-76
2023/06/02 04:14:13;;;;;;;9.90;7.28;;;;;;;16.83;58.09;93704.47;4967904;28;20454;-75
2023/06/02 04:16:39;;;;;;;6.68;5.55;;;;;;;16.87;57.13;93703.41;4975363;28;20324;-75
2023/06/02 04:19:05;;;;;;;8.85;6.47;;;;;;;16.83;57.65;93699.09;4975206;28;20141;-75
2023/06/02 04:21:30;;;;;;;10.77;6.45;;;;;;;17.02;56.40;93707.91;4975825;28;20559;-75
2023/06/02 04:23:56;;;;;;;15.68;7.60;;;;;;;16.99;57.48;93702.47;4974467;28;20050;-75
2023/06/02 04:26:21;;;;;;;12.00;7.43;;;;;;;16.98;58.40;93688.28;4975606;28;20551;-75
2023/06/02 04:28:46;;;;;;;10.82;7.32;;;;;;;17.11;58.42;93705.78;4974781;28;20335;-75
2023/06/02 04:31:12;;;;;;;10.35;8.05;;;;;;;17.20;57.84;93702.13;4975875;28;20261;-75
2023/06/02 04:33:37;;;;;;;11.70;8.20;;;;;;;17.31;57.68;93706.53;4976472;28;20045;-75
2023/06/02 04:36:03;;;;;;;15.73;8.38;;;;;;;17.30;58.23;93702.31;4972422;28;20524;-76
2023/06/02 04:38:29;;;;;;;12.63;8.10;;;;;;;17.49;57.86;93709.56;4974047;28;20073;-76
2023/06/02 04:40:56;;;;;;;11.77;8.18;;;;;;;17.55;57.66;93695.44;4973263;28;20042;-75
2023/06/02 04:43:22;;;;;;;14.48;7.28;;;;;;;17.60;56.64;93705.09;4976813;28;20081;-75
2023/06/02 04:45:47;;;;;;;12.40;9.40;;;;;;;17.70;55.69;93707.19;4973967;28;20054;-75
2023/06/02 04:48:13;;;;;;;13.43;7.68;;;;;;;17.77;56.10;93709.22;4975499;28;20039;-76
2023/06/02 04:50:39;;;;;;;10.68;7.75;;;;;;;17.79;54.93;93705.06;4973738;28;20429;-75
2023/06/02 04:53:05;;;;;;;10.98;6.95;;;;;;;17.67;55.23;93710.63;4975063;28;20338;-76
2023/06/02 04:55:30;;;;;;;13.90;9.23;;;;;;;17.68;56.01;93709.47;4973987;28;20128;-76
2023/06/02 04:57:56;;;;;;;15.40;10.15;;;;;;;17.33;55.92;93698.91;4976174;28;20019;-76
2023/06/02 05:00:21;;;;;;;14.43;9.07;;;;;;;17.43;56.47;93713.66;4973241;28;20120;-75
2023/06/02 05:02:47;;;;;;;14.38;9.45;;;;;;;17.65;55.41;93707.50;4972861;28;20133;-75
2023/06/02 05:05:12;;;;;;;14.10;10.13;;;;;;;17.46;56.99;93721.00;4973741;28;20528;-76
2023/06/02 05:07:38;;;;;;;14.63;10.18;;;;;;;17.50;55.41;93732.63;4991429;28;20488;-76
2023/06/02 05:10:04;;;;;;;13.07;9.23;;;;;;;17.54;56.54;93717.31;4974577;28;20039;-75
2023/06/02 05:12:30;;;;;;;15.35;10.13;;;;;;;17.77;56.26;93731.53;4969534;28;20579;-76
2023/06/02 05:14:55;;;;;;;16.90;10.15;;;;;;;18.07;54.90;93730.88;4974682;28;20042;-75
2023/06/02 05:17:23;;;;;;;16.67;8.75;;;;;;;17.95;54.15;93729.13;4974662;28;20042;-75
2023/06/02 05:19:49;;;;;;;12.60;9.88;;;;;;;17.57;55.00;93732.72;4971226;28;20046;-76
2023/06/02 05:22:14;;;;;;;15.57;9.45;;;;;;;17.70;54.58;93726.03;4975299;28;20030;-77
2023/06/02 05:24:40;;;;;;;13.32;9.20;;;;;;;18.02;54.05;93738.13;4973942;28;20365;-76
2023/06/02 05:27:07;;;;;;;14.55;9.05;;;;;;;17.65;54.53;93710.19;4973575;28;20481;-76
2023/06/02 05:29:32;;;;;;;19.33;9.85;;;;;;;17.85;54.29;93727.81;4972303;28;20073;-77
2023/06/02 05:31:58;;;;;;;18.02;8.75;;;;;;;18.19;54.49;93730.66;4972851;28;20444;-76
2023/06/02 05:34:23;;;;;;;14.73;8.55;;;;;;;17.97;53.14;93719.59;4974294;28;20026;-76
2023/06/02 05:36:48;;;;;;;13.55;7.95;;;;;;;18.20;54.03;93710.66;4970243;28;20508;-76
2023/06/02 05:39:14;;;;;;;17.55;9.52;;;;;;;18.45;53.12;93728.72;4972179;28;20032;-76
2023/06/02 05:41:39;;;;;;;16.13;9.20;;;;;;;18.15;52.63;93721.75;4970979;28;20042;-76
2023/06/02 05:44:05;;;;;;;11.80;8.45;;;;;;;18.04;53.53;93719.69;4969696;28;20050;-76
2023/06/02 05:46:30;;;;;;;12.70;8.45;;;;;;;18.35;52.82;93723.19;4972046;28;20030;-76
2023/06/02 05:48:56;;;;;;;13.52;9.38;;;;;;;18.15;53.05;93719.06;4973558;28;20019;-77
2023/06/02 05:51:21;;;;;;;11.13;9.02;;;;;;;17.95;53.52;93719.16;4972294;28;20125;-76
2023/06/02 05:53:49;;;;;;;11.65;8.48;;;;;;;18.26;53.73;93711.91;4972844;28;20049;-76
2023/06/02 05:56:15;;;;;;;11.80;8.77;;;;;;;18.33;53.81;93726.25;4986469;28;20038;-76
2023/06/02 05:58:41;;;;;;;22.48;9.77;;;;;;;18.62;53.31;93737.41;4973824;28;20076;-76
2023/06/02 06:01:08;;;;;;;14.57;8.43;;;;;;;18.84;51.81;93733.88;4971232;28;20030;-76
2023/06/02 06:03:34;;;;;;;11.65;7.97;;;;;;;18.92;51.15;93732.06;4974638;28;20073;-76
2023/06/02 06:06:01;;;;;;;11.93;8.65;;;;;;;18.73;52.47;93733.72;4970260;28;20125;-76
2023/06/02 06:08:27;;;;;;;15.88;8.95;;;;;;;18.26;51.96;93709.22;4972825;28;20050;-77
2023/06/02 06:10:52;;;;;;;9.82;8.10;;;;;;;18.53;52.13;93729.59;4971880;28;20046;-77
2023/06/02 06:13:18;;;;;;;13.70;9.20;;;;;;;18.85;53.04;93746.97;4974306;28;20026;-75
2023/06/02 06:15:43;;;;;;;12.23;8.43;;;;;;;19.14;51.90;93741.91;4951663;28;20520;-77
2023/06/02 06:18:09;;;;;;;12.45;8.55;;;;;;;19.25;51.03;93729.34;4966456;28;20578;-77
2023/06/02 06:20:34;;;;;;;15.00;8.00;;;;;;;19.32;50.32;93724.78;4969562;28;20042;-76
2023/06/02 06:22:59;;;;;;;10.23;7.47;;;;;;;19.52;50.87;93738.09;4970863;28;20488;-76
2023/06/02 06:25:25;;;;;;;17.65;7.85;;;;;;;19.77;49.35;93738.31;4972274;28;20046;-76
2023/06/02 06:27:50;;;;;;;11.70;7.95;;;;;;;19.70;49.42;93717.47;4971467;28;20609;-75
2023/06/02 06:30:16;;;;;;;10.82;7.88;;;;;;;19.85;49.27;93721.06;4969740;28;20528;-77
2023/06/02 06:32:41;;;;;;;13.75;7.82;;;;;;;19.83;48.19;93728.75;4973446;28;20026;-76
2023/06/02 06:35:07;;;;;;;11.50;7.25;;;;;;;19.88;48.38;93736.50;4970907;28;20368;-77
2023/06/02 06:37:32;;;;;;;12.70;7.00;;;;;;;19.84;48.81;93736.47;4974216;28;20034;-76
2023/06/02 06:39:58;;;;;;;10.45;7.93;;;;;;;19.75;47.79;93739.47;4972108;28;20026;-76
2023/06/02 06:42:23;;;;;;;18.92;7.90;;;;;;;19.75;48.47;93727.91;4970677;28;20042;-76
2023/06/02 06:44:49;;;;;;;11.43;7.25;;;;;;;;;;4972169;28;20572;-75
2023/06/02 06:47:15;;;;;;;12.63;7.13;;;;;;;20.02;48.59;93731.22;4969966;28;20562;-77
2023/06/02 06:49:40;;;;;;;11.60;6.35;;;;;;;19.95;49.43;93731.13;4972544;28;20145;-77
2023/06/02 06:52:06;;;;;;;10.57;7.15;;;;;;;20.19;49.75;93732.53;4971029;28;20108;-77
2023/06/02 06:54:31;;;;;;;9.52;7.40;;;;;;;20.41;47.31;93736.91;4970781;28;20576;-76
2023/06/02 06:56:56;;;;;;;13.85;7.38;;;;;;;20.17;47.24;93728.28;4970356;28;20623;-76
2023/06/02 06:59:22;;;;;;;12.40;7.65;;;;;;;20.44;48.47;93734.22;4970393;28;20038;-75
2023/06/02 07:01:47;;;;;;;10.35;7.22;;;;;;;20.38;47.09;93727.66;4971550;28;20050;-76
2023/06/02 07:04:13;;;;;;;12.13;6.72;;;;;;;20.51;48.92;93728.88;4987351;28;20508;-76
2023/06/02 07:06:38;;;;;;;12.57;6.95;;;;;;;20.29;49.44;93719.06;4972071;28;20496;-77
2023/06/02 07:09:04;;;;;;;10.93;7.78;;;;;;;20.46;49.01;93713.03;4971228;28;20038;-76
2023/06/02 07:11:29;;;;;;;17.17;7.88;;;;;;;20.49;49.00;93736.56;4973648;28;20026;-76
2023/06/02 07:13:55;;;;;;;9.90;6.78;;;;;;;20.48;48.98;93742.38;4971026;28;20590;-77
2023/06/02 07:16:21;;;;;;;15.00;7.10;;;;;;;20.64;48.49;93739.34;4973792;28;20084;-76
2023/06/02 07:18:49;;;;;;;12.57;7.53;;;;;;;20.59;47.70;93726.97;4974002;28;20306;-76
2023/06/02 07:21:14;;;;;;;8.05;6.45;;;;;;;20.87;47.25;93737.19;4970036;28;20420;-77
2023/06/02 07:23:40;;;;;;;11.98;6.80;;;;;;;20.93;46.50;93743.75;4969898;28;20046;-76
2023/06/02 07:26:05;;;;;;;10.77;6.53;;;;;;;20.54;47.20;93736.22;4970993;28;20115;-76
2023/06/02 07:28:31;;;;;;;9.15;6.00;;;;;;;20.50;46.89;93740.81;4971498;28;20558;-74
2023/06/02 07:30:56;;;;;;;8.93;5.90;;;;;;;20.38;47.54;93749.25;4969536;28;20576;-74
2023/06/02 07:33:22;;;;;;;10.73;6.72;;;;;;;20.33;47.08;93752.31;4970253;28;20030;-76
2023/06/02 07:35:47;;;;;;;8.25;6.70;;;;;;;20.66;47.01;93756.75;4987487;28;20761;-76
2023/06/02 07:38:13;;;;;;;12.70;5.93;;;;;;;20.65;45.63;93730.09;4974798;28;20038;-76
2023/06/02 07:40:38;;;;;;;11.65;6.50;;;;;;;20.33;46.35;93755.00;4976347;28;20020;-75
2023/06/02 07:43:04;;;;;;;11.38;6.03;;;;;;;20.10;47.09;93757.09;4974986;28;20037;-75
2023/06/02 07:45:29;;;;;;;11.60;6.25;;;;;;;20.00;47.99;93769.38;4976235;28;20050;-77
2023/06/02 07:47:55;;;;;;;8.75;6.57;;;;;;;20.26;47.17;93752.25;4978223;28;20138;-75
2023/06/02 07:50:20;;;;;;;18.85;6.32;;;;;;;20.32;47.01;93756.16;4977458;28;20054;-75
2023/06/02 07:52:46;;;;;;;11.57;6.13;;;;;;;20.36;48.00;93767.75;4978683;28;20045;-76
2023/06/02 07:55:12;;;;;;;8.88;6.47;;;;;;;20.57;47.64;93764.41;4977941;28;20349;-76
2023/06/02 07:57:37;;;;;;;10.82;7.10;;;;;;;20.66;47.18;93764.06;4971658;28;20046;-76
2023/06/02 08:00:14;;;;;;;12.35;6.13;;;;;;;20.55;47.17;93762.09;4973870;28;20066;-77
2023/06/02 08:02:43;;;;;;;11.30;6.72;;;;;;;20.47;46.80;93751.63;4981036;28;20042;-76
2023/06/02 08:05:09;;;;;;;12.38;7.07;;;;;;;20.64;47.65;93753.63;4976287;28;20115;-77
2023/06/02 08:07:34;;;;;;;14.15;7.28;;;;;;;20.78;46.60;93755.63;4976114;28;20136;-76
2023/06/02 08:10:00;;;;;;;16.13;6.82;;;;;;;20.49;47.72;93741.97;4975675;28;20452;-76
2023/06/02 08:12:25;;;;;;;9.32;6.60;;;;;;;20.68;48.38;93748.28;4974603;28;20042;-76
2023/06/02 08:14:51;;;;;;;9.98;6.22;;;;;;;20.86;48.48;93746.41;4976506;28;20505;-75
2023/06/02 08:17:16;;;;;;;17.48;8.07;;;;;;;20.94;47.10;93739.91;4973624;28;20042;-75
2023/06/02 08:19:41;;;;;;;7.43;6.63;;;;;;;20.68;47.00;93732.06;4977338;28;20461;-75
2023/06/02 08:22:09;;;;;;;16.85;6.47;;;;;;;20.44;47.53;93731.50;4972211;28;20034;-76
2023/06/02 08:24:36;;;;;;;10.25;6.50;;;;;;;20.57;47.69;93742.81;4976194;28;20030;-75
2023/06/02 08:27:03;;;;;;;8.02;6.05;;;;;;;20.62;46.98;93736.25;4975404;28;20358;-76
2023/06/02 08:29:30;;;;;;;8.23;6.30;;;;;;;20.73;46.22;93712.78;4973910;28;20516;-76
2023/06/02 08:31:55;;;;;;;13.88;6.13;;;;;;;20.83;45.85;93714.72;4973898;28;20049;-75
2023/06/02 08:34:21;;;;;;;6.40;5.60;;;;;;;20.99;44.69;93713.28;4975502;28;20370;-76
2023/06/02 08:36:56;;;;;;;9.00;6.40;;;;;;;20.75;44.85;93716.63;4973141;28;20061;-76
2023/06/02 08:39:22;;;;;;;7.78;5.50;;;;;;;20.92;45.86;93707.84;4976878;28;20550;-75
2023/06/02 08:41:50;;;;;;;7.90;5.18;;;;;;;20.93;42.86;93722.13;4974326;28;20038;-76
2023/06/02 08:44:16;;;;;;;10.40;5.05;;;;;;;20.78;44.31;93715.09;4974774;28;20039;-75
2023/06/02 08:46:46;;;;;;;11.32;5.72;;;;;;;20.93;44.14;93703.22;4973282;28;20546;-75
2023/06/02 08:49:15;;;;;;;5.90;4.97;;;;;;;21.07;42.91;93710.63;4972794;28;20050;-76
2023/06/02 08:51:42;;;;;;;9.18;5.35;;;;;;;21.22;41.80;93701.38;4973681;28;20377;-75
2023/06/02 08:54:11;;;;;;;7.45;5.22;;;;;;;20.98;41.86;93694.72;4972724;28;20475;-76
2023/06/02 08:56:36;;;;;;;6.32;4.45;;;;;;;21.00;42.09;93689.72;4973852;28;20049;-75
2023/06/02 08:59:02;;;;;;;8.20;4.60;;;;;;;21.14;41.76;93697.09;4973955;28;20823;-76
2023/06/02 09:01:27;;;;;;;10.73;5.65;;;;;;;21.31;42.29;93686.34;4975267;28;20054;-76
2023/06/02 09:03:52;;;;;;;7.70;5.20;;;;;;;21.25;42.10;93687.88;4974270;28;20030;-76
2023/06/02 09:06:20;;;;;;;8.65;4.32;;;;;;;21.39;40.29;93689.81;4975538;28;20366;-76
2023/06/02 09:09:00;;;;;;;8.55;4.32;;;;;;;21.26;40.38;93664.31;4973248;28;20032;-77
2023/06/02 09:11:30;;;;;;;6.20;4.65;;;;;;;21.28;40.73;93675.50;4974568;28;20058;-76
2023/06/02 09:13:56;;;;;;;7.60;4.80;;;;;;;21.22;40.74;93683.22;4974474;28;20125;-76
2023/06/02 09:16:23;;;;;;;5.10;4.60;;;;;;;21.17;41.02;93672.03;4973635;28;20318;-75
2023/06/02 09:18:59;;;;;;;4.90;4.38;;;;;;;21.24;41.03;93675.50;4972444;28;20045;-74
2023/06/02 09:21:27;;;;;;;6.38;4.43;;;;;;;21.26;42.62;93675.91;4973405;28;20042;-76
2023/06/02 09:23:54;;;;;;;7.30;5.10;;;;;;;21.52;42.76;93671.28;4975326;28;20042;-75
2023/06/02 09:26:26;;;;;;;8.23;5.78;;;;;;;21.72;42.61;93667.06;4979958;28;20441;-75
2023/06/02 09:29:12;;;;;;;7.25;4.63;;;;;;;21.74;40.46;93659.34;4973549;28;20042;-75
2023/06/02 09:31:46;;;;;;;9.98;4.55;;;;;;;21.69;39.59;93665.94;4972828;28;20397;-74
2023/06/02 09:34:13;;;;;;;6.13;3.75;;;;;;;21.81;38.38;93657.41;4974797;28;20101;-77
2023/06/02 09:36:39;;;;;;;6.40;4.60;;;;;;;21.93;38.40;93660.88;4972207;28;20034;-77
2023/06/02 09:39:06;;;;;;;8.07;4.55;;;;;;;21.90;40.36;93656.25;4974023;28;20381;-76
2023/06/02 09:41:31;;;;;;;7.55;4.32;;;;;;;21.95;39.42;93653.16;4973683;28;20052;-76
2023/06/02 09:43:57;;;;;;;8.35;5.22;;;;;;;21.86;40.30;93656.22;4972990;28;20259;-75
2023/06/02 09:46:23;;;;;;;9.07;4.88;;;;;;;22.11;41.55;93648.84;4974706;28;20373;-76
2023/06/02 09:48:56;;;;;;;7.75;6.00;;;;;;;22.12;39.31;93636.88;4987389;28;20136;-75
2023/06/02 09:51:25;;;;;;;9.18;5.65;;;;;;;22.13;39.19;93646.53;4972667;28;20385;-76
2023/06/02 09:53:52;;;;;;;6.60;5.07;;;;;;;22.29;39.68;93646.91;4972439;28;20355;-76
2023/06/02 09:56:22;;;;;;;13.68;5.07;;;;;;;22.26;40.04;93653.13;4973861;28;20039;-76
2023/06/02 09:58:48;;;;;;;7.95;5.20;;;;;;;22.09;40.66;93642.31;4977988;28;20473;-77
2023/06/02 10:01:16;;;;;;;6.60;5.60;;;;;;;22.14;41.47;93653.50;4973325;28;20025;-77
2023/06/02 10:03:43;;;;;;;8.68;5.05;;;;;;;22.14;40.65;93644.63;4972208;28;20034;-77
2023/06/02 10:06:18;;;;;;;5.88;5.15;;;;;;;21.91;39.62;93646.94;4971933;28;20164;-76
2023/06/02 10:09:21;;;;;;;10.45;5.80;;;;;;;21.97;43.68;93632.63;4973535;28;20133;-76
2023/06/02 10:11:53;;;;;;;7.20;4.88;;;;;;;22.21;41.24;93645.38;4973275;28;20042;-76
2023/06/02 10:14:39;;;;;;;10.57;5.22;;;;;;;22.24;41.63;93638.44;4970542;28;20117;-77
2023/06/02 10:17:38;;;;;;;8.15;5.38;;;;;;;22.24;40.26;93633.00;4970794;28;20054;-77
2023/06/02 10:20:51;;;;;;;9.40;5.20;;;;;;;22.19;39.84;93636.09;4955955;28;20396;-75
2023/06/02 10:23:45;;;;;;;5.38;4.57;;;;;;;22.16;40.19;93631.44;4972876;28;20035;-77
2023/06/02 10:26:14;;;;;;;6.75;4.72;;;;;;;22.08;39.91;93633.41;4980047;28;20045;-77
2023/06/02 10:28:42;;;;;;;7.40;5.57;;;;;;;22.01;39.69;93627.22;4964711;28;20523;-76
2023/06/02 10:31:09;;;;;;;7.70;5.00;;;;;;;22.07;39.63;93612.88;4970180;28;20049;-77
2023/06/02 10:33:41;;;;;;;7.20;6.03;;;;;;;22.28;39.71;93618.28;4972790;28;20141;-75
2023/06/02 10:36:07;;;;;;;9.32;4.82;;;;;;;22.40;40.12;93619.00;4969802;28;20771;-77
2023/06/02 10:38:33;;;;;;;10.68;5.30;;;;;;;22.49;38.98;93620.13;4969956;28;20034;-76
2023/06/02 10:40:59;;;;;;;8.95;5.05;;;;;;;22.42;38.28;93612.06;4972844;28;20187;-74
2023/06/02 10:43:25;;;;;;;7.13;4.38;;;;;;;22.25;39.75;93619.06;4977443;28;20028;-76
2023/06/02 10:45:50;;;;;;;6.57;4.70;;;;;;;21.91;40.16;93604.41;4968602;28;20397;-76
2023/06/02 10:48:37;;;;;;;9.27;5.25;;;;;;;21.96;38.78;93608.66;4962747;28;20133;-75
2023/06/02 10:51:07;;;;;;;6.97;4.88;;;;;;;22.14;40.28;93601.28;4965484;28;20046;-77
2023/06/02 10:53:33;;;;;;;7.30;5.35;;;;;;;21.92;38.73;93600.53;4970705;28;20088;-76
2023/06/02 10:56:40;;;;;;;6.22;3.97;;;;;;;21.90;42.19;93605.59;4969684;28;20054;-76
2023/06/02 10:59:07;;;;;;;6.85;5.00;;;;;;;22.10;39.52;93601.28;4967948;28;20042;-77
2023/06/02 11:01:59;;;;;;;7.72;4.72;;;;;;;21.94;40.33;93598.22;4972713;28;20079;-76
2023/06/02 11:04:36;;;;;;;7.78;4.30;;;;;;;21.97;38.41;93592.03;4979714;28;20045;-76
2023/06/02 11:07:18;;;;;;;6.90;4.40;;;;;;;21.97;38.97;93596.66;4969711;28;20042;-76
2023/06/02 11:10:04;;;;;;;5.32;4.75;;;;;;;22.06;38.10;93592.38;4970606;28;20385;-74
2023/06/02 11:12:54;;;;;;;6.72;4.93;;;;;;;21.84;39.50;93588.19;4971422;28;20089;-74
2023/06/02 11:15:20;;;;;;;5.72;4.55;;;;;;;21.94;38.94;93576.56;4988350;28;20038;-72
2023/06/02 11:17:47;;;;;;;6.20;4.75;;;;;;;22.21;39.82;93585.81;4973777;28;22126;-74
2023/06/02 11:20:15;;;;;;;8.73;5.30;;;;;;;22.10;37.57;93576.13;4974704;28;20065;-74
2023/06/02 11:22:41;;;;;;;7.80;4.88;;;;;;;22.25;39.57;93581.13;4972976;28;20120;-73
2023/06/02 11:25:08;;;;;;;7.03;4.80;;;;;;;21.99;38.85;93554.50;4974662;28;20048;-74
2023/06/02 11:27:37;;;;;;;6.85;4.32;;;;;;;22.23;38.57;93575.34;4973338;28;20305;-74
2023/06/02 11:30:08;;;;;;;8.23;4.25;;;;;;;22.23;38.49;93578.06;4975037;28;20047;-74
2023/06/02 11:32:33;;;;;;;6.63;5.35;;;;;;;22.32;39.29;93569.50;4976400;28;20039;-73
2023/06/02 11:35:05;;;;;;;8.05;4.70;;;;;;;22.33;38.94;93573.78;4975666;28;20495;-75